This demonstration page uses our WeatherBlox Daily Observations layout. Learn more.

41.55636, -103.73856

Hourly Observations for October 27, 2019

Temp ( °F °C ) Dew Point ( °F °C ) Humidity (%) Winds ( mph kmh ) Pressure ( in mb ) Visibility ( mi km ) Precip ( " mm )
12:58 am 00:58 Cloudy 38 3.5 28 -2.4 66 66 NE 22 35 29.88 1012 10 16.0934 0 0
1:58 am 01:58 Cloudy 35 1.4 26 -3.4 71 71 NNE 18 30 29.94 1014 10 16.0934 0 0
2:58 am 02:58 Mostly Cloudy 32 0.2 24 -4.2 73 73 N 17 28 29.95 1014 10 16.0934 0 0
3:58 am 03:58 Cloudy 31 -0.5 24 -4.2 76 76 N 15 24 29.97 1015 10 16.0934 0 0
4:58 am 04:58 Cloudy 30 -0.9 24 -4.4 77 77 N 14 22 29.99 1016 10 16.0934 0 0
5:58 am 05:58 Cloudy with Light Snow Showers 28 -2 25 -3.9 87 87 NNW 12 19 29.99 1016 10 16.0934 0 0
6:58 am 06:58 Cloudy with Light Snow Showers 28 -2.4 25 -3.9 90 90 NNE 14 22 30 1016 10 16.0934 0 0
7:58 am 07:58 Cloudy with Mist and Fog 28 -2.5 27 -2.8 98 98 NNW 7 11 30.03 1017 3 4.82802 0 0
8:58 am 08:58 Cloudy with Light Freezing Drizzle 25 -3.9 23 -5 92 92 N 15 24 30.08 1019 10 16.0934 0 0
9:58 am 09:58 Cloudy with Light Snow Showers 24 -4.6 22 -5.4 94 94 NNW 14 22 30.12 1020 10 16.0934 0 0
10:58 am 10:58 Cloudy with Light Freezing Rain 23 -4.9 22 -5.7 94 94 N 13 20 30.14 1021 8 12.87472 0 0
11:58 am 11:58 Cloudy with Light Snow 23 -5.2 21 -6.1 93 93 NE 10 17 30.17 1022 10 16.0934 0 0
12:58 pm 12:58 Cloudy with Light Snow Showers 23 -5.1 21 -6.3 91 91 NE 6 9 30.2 1023 7 11.26538 0 0
1:58 pm 13:58 Cloudy with Light Snow 23 -4.9 21 -6.1 91 91 NE 3 6 30.22 1023 5 8.0467 0 0
2:58 pm 14:58 Cloudy with Light Snow 23 -4.8 21 -5.9 92 92 ENE 5 7 30.27 1025 2.75 4.425685 0 0
3:58 pm 15:58 Mostly Cloudy with Scattered Snow Showers 20 -6.4 19 -7.5 92 92 ENE 10 17 30.3 1026 3 4.82802 0.01 0.254
4:58 pm 16:58 Cloudy with Light Snow 20 -6.6 18 -7.9 91 91 NE 12 19 30.34 1027 4 6.43736 0 0
5:58 pm 17:58 Cloudy with Light Snow 21 -5.9 19 -7.2 91 91 ENE 9 15 30.32 1027 7 11.26538 0.01 0.254
6:58 pm 18:58 Cloudy with Light Snow 22 -5.4 19 -7.3 87 87 N 9 15 30.31 1026 1 1.60934 0.02 0.508
7:58 pm 19:58 Mostly Cloudy with Scattered Snow Showers 22 -5.5 19 -7.5 86 86 N 12 19 30.29 1026 7 11.26538 0 0
8:58 pm 20:58 Windy with Snow Showers Likely 21 -5.9 16 -8.7 81 81 N 20 31 30.3 1026 10 16.0934 0 0
9:58 pm 21:58 Mostly Cloudy with Light Snow Showers 21 -5.9 17 -8.5 82 82 N 13 20 30.3 1026 10 16.0934 0 0
10:58 pm 22:58 Mostly Cloudy with Light Snow Showers 21 -6.3 15 -9.2 80 80 N 12 19 30.3 1026 10 16.0934 0 0
11:58 pm 23:58 Cloudy with Light Snow Showers 20 -6.6 16 -8.9 84 84 NNW 8 13 30.32 1027 7 11.26538 0 0

Powered by AerisWeather